Time;durP1;ratioP1;P1;durP2;ratioP2;P2;SDS_P1;SDS_P2;PMS_P1;PMS_P2;Temp;Humidity;BMP_temperature;BMP_pressure;BME280_temperature;BME280_humidity;BME280_pressure;Samples;Min_cycle;Max_cycle;Signal;HPM_P1;HPM_P2
2023/12/26 00:00:06;;;;;;;2.15;1.25;;;9.30;99.90;;;;;;4992996;28;20052;-82
2023/12/26 00:02:32;;;;;;;2.97;1.60;;;9.30;99.90;;;;;;4977433;28;20050;-82
2023/12/26 00:04:58;;;;;;;4.43;1.60;;;9.30;99.90;;;;;;4977556;28;20399;-82
2023/12/26 00:07:23;;;;;;;2.83;1.70;;;9.40;99.90;;;;;;4996605;28;20042;-82
2023/12/26 00:09:49;;;;;;;5.05;2.15;;;9.40;99.90;;;;;;4996445;28;20038;-83
2023/12/26 00:12:15;;;;;;;4.22;2.22;;;9.40;99.90;;;;;;5012646;28;20044;-82
2023/12/26 00:14:40;;;;;;;8.18;2.97;;;9.40;99.90;;;;;;5012533;28;20069;-82
2023/12/26 00:17:06;;;;;;;16.25;4.53;;;9.40;99.90;;;;;;4994204;28;20041;-82
2023/12/26 00:19:31;;;;;;;13.52;4.88;;;9.40;99.90;;;;;;4992248;28;20030;-82
2023/12/26 00:21:57;;;;;;;9.13;4.90;;;9.50;99.90;;;;;;4988519;28;20218;-82
2023/12/26 00:24:22;;;;;;;16.23;5.93;;;9.40;99.90;;;;;;4976732;28;20057;-81
2023/12/26 00:26:49;;;;;;;10.80;5.47;;;9.50;99.90;;;;;;4971849;28;20049;-81
2023/12/26 00:29:14;;;;;;;9.43;6.10;;;9.40;99.90;;;;;;4994659;28;20046;-82
2023/12/26 00:31:41;;;;;;;11.43;6.97;;;9.50;99.90;;;;;;4979282;28;20042;-82
2023/12/26 00:34:07;;;;;;;8.60;6.85;;;9.50;99.90;;;;;;4995819;28;20038;-82
2023/12/26 00:36:33;;;;;;;12.45;8.02;;;9.50;99.90;;;;;;4995903;28;20511;-82
2023/12/26 00:38:58;;;;;;;10.20;6.72;;;9.50;99.90;;;;;;4994998;28;20044;-82
2023/12/26 00:41:24;;;;;;;7.72;5.93;;;9.60;99.90;;;;;;4990494;28;20120;-81
2023/12/26 00:43:51;;;;;;;7.68;5.60;;;9.60;99.90;;;;;;4995406;28;20124;-82
2023/12/26 00:46:18;;;;;;;8.27;5.50;;;9.60;99.90;;;;;;4995070;28;20049;-82
2023/12/26 00:48:44;;;;;;;11.13;7.07;;;9.70;99.90;;;;;;4995795;28;20085;-81
2023/12/26 00:51:09;;;;;;;16.17;9.38;;;9.70;99.90;;;;;;4995101;28;20078;-81
2023/12/26 00:53:35;;;;;;;9.35;5.68;;;9.70;99.90;;;;;;4979221;28;20038;-81
2023/12/26 00:56:00;;;;;;;10.85;6.78;;;9.70;99.90;;;;;;4991866;28;20048;-81
2023/12/26 00:58:26;;;;;;;10.45;7.45;;;9.80;99.90;;;;;;4983969;28;20045;-81
2023/12/26 01:00:52;;;;;;;10.07;7.07;;;9.80;99.90;;;;;;5011467;28;20454;-81
2023/12/26 01:03:21;;;;;;;8.70;5.15;;;9.80;99.90;;;;;;5011935;28;20411;-82
2023/12/26 01:05:48;;;;;;;4.95;3.60;;;9.80;99.90;;;;;;5011988;28;20120;-82
2023/12/26 01:08:14;;;;;;;6.20;3.05;;;9.80;99.90;;;;;;4975763;28;20207;-82
2023/12/26 01:10:39;;;;;;;5.40;1.77;;;9.80;99.90;;;;;;4992872;28;20042;-82
2023/12/26 01:13:05;;;;;;;8.88;2.03;;;9.70;99.90;;;;;;4978933;28;20045;-83
2023/12/26 01:15:31;;;;;;;12.07;2.35;;;9.70;99.90;;;;;;4995185;28;20125;-84
2023/12/26 01:17:57;;;;;;;9.27;1.88;;;9.70;99.90;;;;;;4995396;28;20072;-83
2023/12/26 01:20:23;;;;;;;9.30;2.13;;;9.60;99.90;;;;;;4983463;28;20048;-83
2023/12/26 01:22:48;;;;;;;7.10;1.42;;;9.50;99.90;;;;;;4990527;28;20045;-83
2023/12/26 01:25:14;;;;;;;7.15;1.50;;;9.50;99.90;;;;;;4989657;28;20044;-82
2023/12/26 01:27:39;;;;;;;6.78;1.40;;;9.30;99.90;;;;;;4976428;28;20134;-82
2023/12/26 01:30:07;;;;;;;8.65;1.40;;;9.30;99.90;;;;;;4994099;28;20042;-81
2023/12/26 01:32:32;;;;;;;12.07;1.85;;;9.20;99.90;;;;;;5011142;28;20037;-82
2023/12/26 01:34:58;;;;;;;9.65;1.50;;;9.20;99.90;;;;;;5010238;28;20056;-82
2023/12/26 01:37:24;;;;;;;10.55;1.40;;;9.10;99.90;;;;;;4994943;28;20503;-82
2023/12/26 01:39:50;;;;;;;10.45;1.70;;;9.10;99.90;;;;;;4998753;28;20076;-82
2023/12/26 01:42:16;;;;;;;8.90;1.70;;;9.10;99.90;;;;;;4994854;28;20041;-82
2023/12/26 01:44:41;;;;;;;10.30;1.40;;;9.00;99.90;;;;;;4976675;28;20036;-82
2023/12/26 01:47:07;;;;;;;6.38;1.60;;;9.00;99.90;;;;;;5001706;28;20033;-82
2023/12/26 01:49:33;;;;;;;8.40;1.60;;;9.00;99.90;;;;;;4994477;28;20069;-82
2023/12/26 01:51:59;;;;;;;7.38;1.75;;;9.00;99.90;;;;;;4994550;28;20041;-83
2023/12/26 01:54:33;;;;;;;10.45;1.50;;;9.00;99.90;;;;;;4968360;28;20049;-82
2023/12/26 01:56:59;;;;;;;11.13;1.92;;;9.00;99.90;;;;;;4959223;28;20038;-82
2023/12/26 01:59:25;;;;;;;13.50;2.50;;;8.90;99.90;;;;;;4970530;28;20034;-82
2023/12/26 02:01:50;;;;;;;10.55;1.83;;;8.90;99.90;;;;;;4994596;28;20038;-82
2023/12/26 02:04:16;;;;;;;7.18;1.95;;;8.90;99.90;;;;;;4994743;28;20096;-83
2023/12/26 02:06:41;;;;;;;9.82;1.92;;;9.00;99.90;;;;;;4978451;28;20041;-82
2023/12/26 02:09:10;;;;;;;12.80;2.10;;;8.90;99.90;;;;;;4993663;28;20476;-82
2023/12/26 02:11:38;;;;;;;11.23;2.35;;;9.00;99.90;;;;;;4974991;28;20046;-83
2023/12/26 02:14:05;;;;;;;14.10;2.47;;;9.00;99.90;;;;;;4963594;28;20517;-83
2023/12/26 02:16:32;;;;;;;14.55;2.85;;;9.00;99.90;;;;;;4994384;28;20034;-82
2023/12/26 02:18:57;;;;;;;14.35;2.60;;;9.00;99.90;;;;;;4994477;28;20160;-83
2023/12/26 02:21:23;;;;;;;13.60;3.08;;;9.00;99.90;;;;;;4976997;28;20310;-82
2023/12/26 02:23:58;;;;;;;15.10;2.90;;;9.10;99.90;;;;;;4959030;28;20038;-82
2023/12/26 02:26:24;;;;;;;18.10;3.20;;;9.10;99.90;;;;;;4958948;28;20484;-82
2023/12/26 02:28:52;;;;;;;14.10;3.58;;;9.10;99.90;;;;;;4985626;28;20049;-83
2023/12/26 02:31:19;;;;;;;11.15;3.20;;;9.10;99.90;;;;;;4993409;28;20508;-82
2023/12/26 02:33:46;;;;;;;12.95;2.80;;;9.10;99.90;;;;;;4993781;28;20042;-84
2023/12/26 02:36:12;;;;;;;12.98;3.88;;;9.10;99.90;;;;;;4994306;28;20042;-83
2023/12/26 02:38:37;;;;;;;17.73;3.03;;;9.20;99.90;;;;;;4991582;28;20034;-82
2023/12/26 02:41:06;;;;;;;13.98;3.22;;;9.20;99.90;;;;;;4989244;28;20044;-83
2023/12/26 02:43:33;;;;;;;14.95;2.72;;;9.20;99.90;;;;;;4994247;28;20531;-82
2023/12/26 02:45:59;;;;;;;16.35;3.00;;;9.20;99.90;;;;;;4994248;28;20045;-83
2023/12/26 02:48:24;;;;;;;16.42;2.83;;;9.20;99.90;;;;;;4983222;28;20038;-82
2023/12/26 02:50:50;;;;;;;14.02;2.80;;;9.20;99.90;;;;;;5004859;28;20520;-82
2023/12/26 02:53:16;;;;;;;14.10;2.75;;;9.20;99.90;;;;;;4987974;28;20121;-82
2023/12/26 02:55:42;;;;;;;17.70;3.08;;;9.20;99.90;;;;;;4959007;28;20077;-82
2023/12/26 02:58:07;;;;;;;14.50;2.47;;;9.20;99.90;;;;;;4974707;28;20142;-82
2023/12/26 03:00:33;;;;;;;15.18;2.88;;;9.10;99.90;;;;;;4987560;28;20103;-83
2023/12/26 03:02:58;;;;;;;14.05;2.78;;;9.10;99.90;;;;;;4994206;28;20048;-81
2023/12/26 03:05:24;;;;;;;15.95;2.92;;;9.00;99.90;;;;;;4994045;28;20056;-82
2023/12/26 03:07:49;;;;;;;13.02;3.15;;;9.00;99.90;;;;;;5009941;28;20042;-82
2023/12/26 03:10:15;;;;;;;13.52;2.60;;;8.90;99.90;;;;;;4995966;28;20053;-82
2023/12/26 03:12:41;;;;;;;13.48;2.75;;;8.90;99.90;;;;;;4981233;28;20436;-83
2023/12/26 03:15:08;;;;;;;14.18;2.97;;;8.90;99.90;;;;;;5014065;28;20041;-82
2023/12/26 03:17:33;;;;;;;11.80;2.33;;;8.90;99.90;;;;;;4981479;28;20108;-82
2023/12/26 03:19:59;;;;;;;12.43;3.08;;;8.90;99.90;;;;;;4995089;28;20488;-82
2023/12/26 03:22:24;;;;;;;14.48;2.90;;;8.90;99.90;;;;;;4981115;28;20397;-83
2023/12/26 03:24:50;;;;;;;12.55;2.95;;;8.90;99.90;;;;;;4997451;28;20109;-82
2023/12/26 03:27:16;;;;;;;17.52;2.88;;;9.00;99.90;;;;;;5012230;28;20419;-82
2023/12/26 03:29:41;;;;;;;15.75;3.70;;;9.00;99.90;;;;;;4996654;28;20036;-82
2023/12/26 03:32:09;;;;;;;18.38;3.85;;;9.00;99.90;;;;;;4997003;28;20046;-82
2023/12/26 03:34:37;;;;;;;12.77;3.50;;;9.00;99.90;;;;;;4997140;28;20469;-82
2023/12/26 03:37:03;;;;;;;8.80;2.40;;;9.10;99.90;;;;;;4995968;28;20451;-83
2023/12/26 03:39:28;;;;;;;11.10;2.67;;;9.00;99.90;;;;;;4992821;28;20092;-83
2023/12/26 03:41:54;;;;;;;9.40;1.73;;;8.80;99.90;;;;;;4961391;28;20045;-82
2023/12/26 03:44:19;;;;;;;11.13;1.70;;;8.50;99.90;;;;;;4961309;28;20485;-83
2023/12/26 03:46:45;;;;;;;11.35;1.65;;;8.30;99.90;;;;;;4961449;28;20046;-83
2023/12/26 03:49:11;;;;;;;7.32;1.58;;;8.10;99.90;;;;;;4961614;28;20042;-82
2023/12/26 03:51:36;;;;;;;6.50;1.60;;;7.90;99.90;;;;;;4961718;28;20035;-82
2023/12/26 03:54:02;;;;;;;7.30;1.38;;;7.70;99.90;;;;;;5004399;28;20052;-82
2023/12/26 03:56:32;;;;;;;8.20;1.85;;;7.50;99.90;;;;;;4980449;28;20034;-82
2023/12/26 03:59:02;;;;;;;10.45;2.08;;;7.40;99.90;;;;;;4980801;28;20400;-82
2023/12/26 04:01:28;;;;;;;13.80;2.30;;;7.20;99.90;;;;;;4977169;28;20069;-82
2023/12/26 04:03:53;;;;;;;10.55;2.10;;;7.10;99.90;;;;;;4976874;28;20042;-82
2023/12/26 04:06:20;;;;;;;9.95;2.17;;;7.10;99.90;;;;;;4991100;28;20132;-82
2023/12/26 04:08:45;;;;;;;10.70;2.60;;;7.00;99.90;;;;;;4996441;28;20042;-82
2023/12/26 04:11:11;;;;;;;10.68;2.28;;;6.90;99.90;;;;;;4995517;28;20088;-82
2023/12/26 04:13:37;;;;;;;12.98;2.45;;;6.90;99.90;;;;;;4980221;28;20038;-82
2023/12/26 04:16:03;;;;;;;14.60;2.67;;;6.90;99.90;;;;;;4996464;28;20042;-82
2023/12/26 04:18:29;;;;;;;13.32;2.40;;;6.80;99.90;;;;;;5012820;28;20041;-82
2023/12/26 04:20:54;;;;;;;11.07;2.40;;;6.80;99.90;;;;;;5010284;28;20041;-82
2023/12/26 04:23:20;;;;;;;12.60;2.92;;;6.80;99.90;;;;;;4993242;28;20133;-82
2023/12/26 04:25:46;;;;;;;16.98;3.35;;;6.80;99.90;;;;;;4960742;28;20501;-82
2023/12/26 04:28:11;;;;;;;13.85;2.60;;;6.80;99.90;;;;;;4976978;28;20057;-82
2023/12/26 04:30:37;;;;;;;14.38;3.00;;;6.70;99.90;;;;;;4988853;28;20037;-82
2023/12/26 04:33:05;;;;;;;13.70;2.78;;;6.70;99.90;;;;;;4995556;28;20793;-82
2023/12/26 04:35:31;;;;;;;16.30;3.28;;;6.70;99.90;;;;;;4992496;28;20124;-82
2023/12/26 04:37:56;;;;;;;11.43;2.30;;;6.60;99.90;;;;;;4991463;28;20504;-82
2023/12/26 04:40:22;;;;;;;13.75;2.53;;;6.60;99.90;;;;;;4985153;28;20448;-82
2023/12/26 04:42:47;;;;;;;14.48;2.67;;;6.60;99.90;;;;;;4976202;28;20045;-82
2023/12/26 04:45:13;;;;;;;12.70;3.20;;;6.60;99.90;;;;;;4976983;28;20041;-82
2023/12/26 04:47:39;;;;;;;12.93;2.72;;;6.60;99.90;;;;;;4995905;28;20415;-82
2023/12/26 04:50:05;;;;;;;11.05;2.60;;;6.50;99.90;;;;;;4987682;28;20044;-82
2023/12/26 04:52:30;;;;;;;10.95;2.25;;;6.50;99.90;;;;;;4960043;28;20052;-82
2023/12/26 04:54:56;;;;;;;11.20;2.40;;;6.50;99.90;;;;;;4987306;28;20034;-82
2023/12/26 04:57:21;;;;;;;16.52;3.00;;;6.50;99.90;;;;;;4993066;28;20057;-82
2023/12/26 04:59:47;;;;;;;13.38;2.30;;;6.50;99.90;;;;;;4989913;28;20092;-81
2023/12/26 05:02:12;;;;;;;14.70;2.75;;;6.50;99.90;;;;;;4975741;28;20046;-82
2023/12/26 05:04:38;;;;;;;10.63;2.75;;;6.50;99.90;;;;;;4959784;28;20049;-81
2023/12/26 05:07:04;;;;;;;15.07;2.90;;;6.50;99.90;;;;;;4976253;28;20053;-82
2023/12/26 05:09:29;;;;;;;12.38;2.20;;;6.50;99.90;;;;;;4975686;28;20038;-82
2023/12/26 05:11:55;;;;;;;12.38;2.38;;;6.50;99.90;;;;;;4970642;28;20038;-82
2023/12/26 05:14:20;;;;;;;10.57;2.30;;;6.50;99.90;;;;;;4978820;28;20519;-82
2023/12/26 05:16:48;;;;;;;14.02;2.80;;;6.50;99.90;;;;;;4995357;28;20034;-82
2023/12/26 05:19:15;;;;;;;13.75;2.88;;;6.50;99.90;;;;;;4994798;28;20515;-82
2023/12/26 05:21:40;;;;;;;13.05;2.78;;;6.60;99.90;;;;;;4975831;28;20046;-82
2023/12/26 05:24:06;;;;;;;14.00;3.25;;;6.60;99.90;;;;;;4979711;28;20409;-81
2023/12/26 05:26:42;;;;;;;16.23;2.83;;;6.60;99.90;;;;;;4978950;28;20041;-82
2023/12/26 05:29:08;;;;;;;13.75;3.15;;;6.60;99.90;;;;;;4995317;28;20041;-82
2023/12/26 05:31:34;;;;;;;13.98;3.08;;;6.70;99.90;;;;;;4987438;23;20050;-74
2023/12/26 05:34:02;;;;;;;17.08;3.20;;;6.70;99.90;;;;;;4978397;28;20475;-74
2023/12/26 05:36:28;;;;;;;13.52;2.92;;;6.80;99.90;;;;;;4995109;28;20395;-74
2023/12/26 05:38:54;;;;;;;11.90;2.90;;;6.90;99.90;;;;;;4978006;28;20041;-74
2023/12/26 05:41:19;;;;;;;10.70;2.85;;;7.00;99.90;;;;;;4978213;28;20076;-74
2023/12/26 05:43:45;;;;;;;13.65;3.28;;;7.10;99.90;;;;;;4992902;28;20092;-74
2023/12/26 05:46:11;;;;;;;14.10;2.80;;;7.20;99.90;;;;;;4994614;28;20038;-74
2023/12/26 05:48:43;;;;;;;15.75;3.00;;;7.30;99.90;;;;;;4985581;28;20049;-74
2023/12/26 05:51:08;;;;;;;13.70;3.10;;;7.30;99.90;;;;;;4977886;28;20038;-75
2023/12/26 05:53:34;;;;;;;13.73;2.80;;;7.40;99.90;;;;;;4994636;28;20432;-74
2023/12/26 05:55:59;;;;;;;13.18;3.20;;;7.50;99.90;;;;;;4979436;28;20073;-74
2023/12/26 05:58:25;;;;;;;13.85;3.30;;;7.50;99.90;;;;;;4969348;28;20049;-74
2023/12/26 06:00:51;;;;;;;12.77;2.70;;;7.60;99.90;;;;;;4958840;28;20133;-74
2023/12/26 06:03:20;;;;;;;13.23;3.22;;;7.60;99.90;;;;;;4961620;28;20121;-74
2023/12/26 06:05:47;;;;;;;12.25;3.00;;;7.70;99.90;;;;;;4994189;28;20519;-74
2023/12/26 06:08:16;;;;;;;11.70;2.83;;;7.70;99.90;;;;;;4976988;28;20088;-74
2023/12/26 06:10:42;;;;;;;12.68;2.80;;;7.80;99.90;;;;;;4984347;28;20088;-75
2023/12/26 06:13:08;;;;;;;13.40;2.75;;;7.80;99.90;;;;;;5010487;28;20045;-74
2023/12/26 06:15:33;;;;;;;12.15;3.15;;;7.80;99.90;;;;;;4994557;28;20045;-74
2023/12/26 06:17:59;;;;;;;13.05;3.17;;;7.80;99.90;;;;;;4983375;28;20154;-74
2023/12/26 06:20:27;;;;;;;12.63;2.70;;;7.80;99.90;;;;;;4990300;28;20046;-75
2023/12/26 06:22:53;;;;;;;17.08;3.72;;;7.90;99.90;;;;;;4993523;28;20054;-74
2023/12/26 06:25:18;;;;;;;14.50;3.03;;;7.80;99.90;;;;;;4994082;28;20053;-75
2023/12/26 06:27:44;;;;;;;15.77;3.53;;;7.80;99.90;;;;;;4977394;28;20443;-74
2023/12/26 06:30:10;;;;;;;17.00;3.33;;;7.90;99.90;;;;;;4977653;28;20052;-74
2023/12/26 06:32:36;;;;;;;18.85;3.50;;;7.80;99.90;;;;;;4977870;28;20050;-74
2023/12/26 06:35:02;;;;;;;13.57;3.30;;;7.80;99.90;;;;;;4977414;28;20120;-74
2023/12/26 06:37:27;;;;;;;13.35;3.00;;;7.80;99.90;;;;;;4977649;28;20034;-74
2023/12/26 06:39:53;;;;;;;16.10;3.17;;;7.80;99.90;;;;;;4978445;28;20057;-74
2023/12/26 06:42:18;;;;;;;14.48;2.83;;;7.70;99.90;;;;;;4964118;28;20702;-73
2023/12/26 06:44:44;;;;;;;13.80;3.33;;;7.70;99.90;;;;;;5013619;28;20491;-74
2023/12/26 06:47:11;;;;;;;13.13;2.50;;;7.70;99.90;;;;;;4969541;28;20042;-74
2023/12/26 06:49:37;;;;;;;13.68;2.65;;;7.70;99.90;;;;;;4962389;28;20065;-75
2023/12/26 06:52:03;;;;;;;15.18;3.30;;;7.70;99.90;;;;;;4962084;28;20057;-74
2023/12/26 06:54:32;;;;;;;15.10;2.83;;;7.70;99.90;;;;;;4961832;28;20069;-74
2023/12/26 06:56:57;;;;;;;17.15;3.20;;;7.70;99.90;;;;;;4962203;28;20039;-74
2023/12/26 06:59:23;;;;;;;15.32;3.35;;;7.70;99.90;;;;;;4981422;28;20038;-74
2023/12/26 07:01:49;;;;;;;17.80;3.42;;;7.70;99.90;;;;;;4981176;28;20045;-74
2023/12/26 07:04:14;;;;;;;16.75;3.78;;;7.70;99.90;;;;;;5001895;28;20034;-74
2023/12/26 07:06:40;;;;;;;18.73;3.63;;;7.70;99.90;;;;;;4997679;28;20131;-74
2023/12/26 07:09:08;;;;;;;17.48;3.50;;;7.70;99.90;;;;;;4980063;28;20481;-75
2023/12/26 07:11:34;;;;;;;15.90;3.53;;;7.70;99.90;;;;;;4980986;28;20049;-74
2023/12/26 07:13:59;;;;;;;17.02;3.67;;;7.70;99.90;;;;;;4991344;28;20050;-74
2023/12/26 07:16:25;;;;;;;18.70;3.80;;;7.70;99.90;;;;;;4974158;28;20040;-74
2023/12/26 07:18:52;;;;;;;19.45;3.50;;;7.70;99.90;;;;;;4965352;28;20046;-74
2023/12/26 07:21:20;;;;;;;13.93;3.05;;;7.80;99.90;;;;;;4961397;28;20077;-74
2023/12/26 07:23:46;;;;;;;18.90;4.20;;;7.80;99.90;;;;;;4974816;28;20045;-74
2023/12/26 07:26:13;;;;;;;14.98;3.83;;;7.80;99.90;;;;;;4972411;28;20451;-75
2023/12/26 07:28:38;;;;;;;15.38;3.67;;;7.80;99.90;;;;;;4993795;28;20519;-75
2023/12/26 07:31:04;;;;;;;19.70;4.20;;;7.80;99.90;;;;;;4980725;28;20089;-74
2023/12/26 07:33:29;;;;;;;18.65;3.53;;;7.80;99.90;;;;;;4980214;28;20056;-74
2023/12/26 07:35:57;;;;;;;18.30;3.63;;;7.70;99.90;;;;;;4962832;28;20034;-74
2023/12/26 07:38:26;;;;;;;20.13;3.83;;;7.80;99.90;;;;;;4961406;28;20038;-74
2023/12/26 07:40:51;;;;;;;17.85;3.10;;;7.80;99.90;;;;;;4972045;28;20101;-74
2023/12/26 07:43:17;;;;;;;17.05;3.60;;;7.80;99.90;;;;;;4974632;28;20129;-74
2023/12/26 07:45:43;;;;;;;15.30;3.13;;;7.90;99.90;;;;;;4976407;28;20457;-75
2023/12/26 07:48:10;;;;;;;17.63;3.35;;;7.80;99.90;;;;;;4975916;28;20030;-75
2023/12/26 07:50:36;;;;;;;18.67;3.90;;;7.70;99.90;;;;;;4975760;28;20034;-75
2023/12/26 07:53:04;;;;;;;19.20;4.13;;;7.70;99.90;;;;;;4979696;28;20046;-74
2023/12/26 07:55:32;;;;;;;18.48;3.42;;;7.70;99.90;;;;;;4987862;28;20038;-76
2023/12/26 07:57:57;;;;;;;20.02;4.05;;;7.70;99.90;;;;;;4995570;28;20049;-72
2023/12/26 08:00:23;;;;;;;16.05;3.78;;;7.60;99.90;;;;;;4993248;28;20042;-73
2023/12/26 08:02:49;;;;;;;16.00;3.67;;;7.60;99.90;;;;;;4989863;28;20038;-76
2023/12/26 08:05:15;;;;;;;14.25;3.30;;;7.70;99.90;;;;;;4984251;28;20037;-75
2023/12/26 08:07:40;;;;;;;24.42;3.80;;;7.70;99.90;;;;;;4960581;28;20047;-75
2023/12/26 08:10:06;;;;;;;14.63;3.45;;;7.70;99.90;;;;;;4961022;28;20041;-75
2023/12/26 08:12:35;;;;;;;16.55;4.22;;;7.70;99.90;;;;;;4960542;28;20074;-76
2023/12/26 08:15:01;;;;;;;18.52;3.95;;;7.70;99.90;;;;;;4960388;28;20048;-75
2023/12/26 08:17:26;;;;;;;14.40;3.20;;;7.80;99.90;;;;;;4978142;28;20041;-75
2023/12/26 08:19:52;;;;;;;23.05;4.50;;;7.70;99.90;;;;;;4996021;28;20096;-75
2023/12/26 08:22:18;;;;;;;18.63;4.45;;;7.70;99.90;;;;;;4978723;28;20058;-73
2023/12/26 08:24:44;;;;;;;18.20;3.95;;;7.70;99.90;;;;;;4994585;28;20461;-73
2023/12/26 08:27:09;;;;;;;18.55;3.63;;;7.60;99.90;;;;;;4989317;28;20052;-74
2023/12/26 08:29:37;;;;;;;19.08;4.40;;;7.60;99.90;;;;;;4960457;28;20046;-74
2023/12/26 08:32:03;;;;;;;14.43;3.28;;;7.50;99.90;;;;;;4960142;28;20034;-74
2023/12/26 08:34:29;;;;;;;19.02;4.40;;;7.50;99.90;;;;;;4959876;28;20061;-74
2023/12/26 08:36:54;;;;;;;20.42;4.07;;;7.40;99.90;;;;;;4975428;28;20436;-75
2023/12/26 08:39:20;;;;;;;16.83;3.60;;;7.40;99.90;;;;;;4977395;28;20093;-74
2023/12/26 08:41:45;;;;;;;17.27;3.47;;;7.30;99.90;;;;;;4966055;28;20041;-74
2023/12/26 08:44:11;;;;;;;15.13;4.22;;;7.30;99.90;;;;;;4986095;28;20066;-74
2023/12/26 08:46:39;;;;;;;19.15;4.15;;;7.30;99.90;;;;;;4959980;28;20114;-74
2023/12/26 08:49:06;;;;;;;18.02;3.65;;;7.30;99.90;;;;;;4964156;28;20118;-74
2023/12/26 08:51:37;;;;;;;19.52;3.80;;;7.30;99.90;;;;;;5003065;28;20034;-74
2023/12/26 08:54:03;;;;;;;15.18;3.38;;;7.30;99.90;;;;;;4971525;28;20045;-74
2023/12/26 08:56:28;;;;;;;17.17;3.80;;;7.30;99.90;;;;;;4977922;28;20412;-74
2023/12/26 08:58:54;;;;;;;21.00;4.38;;;7.40;99.90;;;;;;4979581;28;20084;-74
2023/12/26 09:01:20;;;;;;;20.73;4.57;;;7.50;99.90;;;;;;4995528;28;20488;-74
2023/12/26 09:03:45;;;;;;;19.08;3.83;;;7.60;99.90;;;;;;4975567;28;20045;-74
2023/12/26 09:06:11;;;;;;;18.08;4.22;;;7.60;99.90;;;;;;4965560;28;20047;-74
2023/12/26 09:08:37;;;;;;;20.40;4.38;;;7.60;99.90;;;;;;4964386;28;20388;-75
2023/12/26 09:11:03;;;;;;;20.88;4.32;;;7.70;99.90;;;;;;4978452;28;20038;-75
2023/12/26 09:13:29;;;;;;;16.25;3.63;;;7.70;99.90;;;;;;4976243;28;20049;-76
2023/12/26 09:16:00;;;;;;;16.73;4.03;;;7.70;99.90;;;;;;4977334;28;20038;-75
2023/12/26 09:18:26;;;;;;;18.20;4.30;;;7.80;99.90;;;;;;4978744;28;20034;-76
2023/12/26 09:20:52;;;;;;;20.48;3.90;;;7.80;99.90;;;;;;4979118;28;20165;-75
2023/12/26 09:23:19;;;;;;;20.63;4.53;;;7.90;99.90;;;;;;4974619;28;20034;-76
2023/12/26 09:25:44;;;;;;;20.92;3.72;;;7.90;99.90;;;;;;4971239;28;20481;-75
2023/12/26 09:28:13;;;;;;;15.98;4.00;;;8.00;99.90;;;;;;4959835;28;20046;-75
2023/12/26 09:30:44;;;;;;;19.33;3.90;;;8.00;99.90;;;;;;4986073;28;20249;-75
2023/12/26 09:33:15;;;;;;;18.20;3.90;;;8.00;99.90;;;;;;4977372;28;20049;-76
2023/12/26 09:35:40;;;;;;;18.13;3.97;;;8.10;99.90;;;;;;5000364;28;20038;-75
2023/12/26 09:38:06;;;;;;;15.65;4.00;;;8.10;99.90;;;;;;4978779;28;20464;-75
2023/12/26 09:40:32;;;;;;;18.52;3.50;;;8.10;99.90;;;;;;4994832;28;20068;-75
2023/12/26 09:43:05;;;;;;;16.27;3.83;;;8.10;99.90;;;;;;4978769;28;20034;-76
2023/12/26 09:45:41;;;;;;;19.08;3.53;;;8.20;99.90;;;;;;4993699;28;20037;-76
2023/12/26 09:48:09;;;;;;;16.65;4.13;;;8.10;99.90;;;;;;4987588;28;20077;-75
2023/12/26 09:50:35;;;;;;;21.80;4.18;;;8.20;99.90;;;;;;4978306;28;20033;-76
2023/12/26 09:53:01;;;;;;;22.27;4.05;;;8.20;99.90;;;;;;4977566;28;20050;-76
2023/12/26 09:55:29;;;;;;;19.08;4.13;;;8.30;99.90;;;;;;4993307;28;20049;-75
2023/12/26 09:58:00;;;;;;;19.65;4.13;;;8.20;99.90;;;;;;4986360;28;20065;-75
2023/12/26 10:00:29;;;;;;;16.02;3.83;;;8.20;99.90;;;;;;4978279;28;20049;-75
2023/12/26 10:02:55;;;;;;;19.80;3.83;;;8.30;99.90;;;;;;4994007;28;20042;-75
2023/12/26 10:05:35;;;;;;;14.13;3.10;;;8.30;99.90;;;;;;4979175;28;20095;-75
2023/12/26 10:08:11;;;;;;;19.17;4.13;;;8.30;99.90;;;;;;4992877;28;20073;-75
2023/12/26 10:10:46;;;;;;;16.48;3.85;;;8.30;99.90;;;;;;4985800;28;20137;-75
2023/12/26 10:13:23;;;;;;;17.55;3.90;;;8.30;99.90;;;;;;4978611;28;20081;-75
2023/12/26 10:15:54;;;;;;;19.25;3.90;;;8.30;99.90;;;;;;4978449;28;20091;-76
2023/12/26 10:18:31;;;;;;;20.67;3.63;;;8.40;99.90;;;;;;4979580;28;20041;-76
2023/12/26 10:21:10;;;;;;;16.48;3.80;;;8.40;99.90;;;;;;4994029;28;20046;-76
2023/12/26 10:23:49;;;;;;;19.77;4.05;;;8.40;99.90;;;;;;4980824;28;20045;-76
2023/12/26 10:26:28;;;;;;;18.48;4.18;;;8.40;99.90;;;;;;5008490;28;20375;-76
2023/12/26 10:29:25;;;;;;;19.45;3.63;;;8.50;99.90;;;;;;5004079;28;20042;-76
2023/12/26 10:32:04;;;;;;;18.13;4.25;;;8.40;99.90;;;;;;4980511;28;20046;-76
2023/12/26 10:34:36;;;;;;;16.25;4.20;;;8.60;99.90;;;;;;4974562;28;20050;-76
2023/12/26 10:37:02;;;;;;;16.95;4.13;;;8.70;99.90;;;;;;4978593;28;20393;-73
2023/12/26 10:39:39;;;;;;;16.55;4.60;;;8.80;99.90;;;;;;4993257;28;20034;-76
2023/12/26 10:42:13;;;;;;;18.55;4.55;;;8.80;99.90;;;;;;5003178;28;20136;-73
2023/12/26 10:45:10;;;;;;;17.02;3.60;;;8.80;99.90;;;;;;4966293;28;20485;-76
2023/12/26 10:47:56;;;;;;;19.95;5.00;;;8.90;99.90;;;;;;4973560;28;20411;-75
2023/12/26 10:50:23;;;;;;;20.55;4.15;;;9.00;99.90;;;;;;4962277;28;20436;-76
2023/12/26 10:53:22;;;;;;;22.27;4.07;;;9.00;99.90;;;;;;4976512;28;20046;-76
2023/12/26 10:56:05;;;;;;;16.88;3.50;;;9.10;99.90;;;;;;4994681;28;20444;-76
2023/12/26 10:58:35;;;;;;;15.48;4.05;;;9.00;99.90;;;;;;4980702;28;20064;-76
2023/12/26 11:01:04;;;;;;;14.95;4.22;;;9.00;99.90;;;;;;4980160;28;20034;-77
2023/12/26 11:06:24;;;;;;;20.90;4.28;;;8.90;99.90;;;;;;4993637;28;20504;-76
2023/12/26 11:08:58;;;;;;;15.23;4.00;;;8.90;99.90;;;;;;4977435;28;20058;-75
2023/12/26 11:11:54;;;;;;;18.05;4.15;;;9.00;99.90;;;;;;4991270;28;20045;-75
2023/12/26 11:14:22;;;;;;;15.85;3.80;;;8.90;99.90;;;;;;4980652;28;20052;-75
2023/12/26 11:16:51;;;;;;;16.75;3.85;;;9.00;99.90;;;;;;4979940;28;20044;-78
2023/12/26 11:19:17;;;;;;;19.48;4.10;;;8.90;99.90;;;;;;4972337;28;20042;-77
2023/12/26 11:21:52;;;;;;;16.27;4.05;;;9.00;99.90;;;;;;4980227;28;20054;-75
2023/12/26 11:24:17;;;;;;;18.85;4.00;;;9.10;99.90;;;;;;4980050;28;20111;-74
2023/12/26 11:26:43;;;;;;;13.88;3.42;;;9.20;99.90;;;;;;4995506;28;20081;-74
2023/12/26 11:29:08;;;;;;;21.52;4.00;;;9.20;99.90;;;;;;4979925;28;20034;-76
2023/12/26 11:32:10;;;;;;;15.75;3.90;;;9.20;99.90;;;;;;4966780;28;20078;-77
2023/12/26 11:34:39;;;;;;;15.65;3.85;;;9.20;99.90;;;;;;4939939;28;20053;-76
2023/12/26 11:37:10;;;;;;;17.15;3.53;;;9.20;99.90;;;;;;4981350;28;20416;-75
2023/12/26 11:39:42;;;;;;;18.10;3.67;;;9.10;99.90;;;;;;4962873;28;20461;-77
2023/12/26 11:42:21;;;;;;;14.63;3.83;;;9.10;99.90;;;;;;4972100;28;20496;-77
2023/12/26 11:45:05;;;;;;;14.75;3.38;;;9.10;99.90;;;;;;4982938;28;20378;-76
2023/12/26 11:47:41;;;;;;;16.27;3.90;;;9.00;99.90;;;;;;4966281;28;20054;-76
2023/12/26 11:50:53;;;;;;;18.80;4.00;;;9.00;99.90;;;;;;4988623;28;22371;-77
2023/12/26 11:53:28;;;;;;;16.52;3.85;;;9.10;99.90;;;;;;4971638;28;20413;-75
2023/12/26 11:55:56;;;;;;;22.77;4.45;;;9.00;99.90;;;;;;4986056;28;20559;-74
2023/12/26 11:59:28;;;;;;;17.73;4.50;;;9.00;99.90;;;;;;4986962;28;20049;-78
2023/12/26 12:02:26;;;;;;;17.65;4.45;;;9.00;99.90;;;;;;4901030;29;20075;-76
2023/12/26 12:05:05;;;;;;;16.73;3.83;;;9.00;99.90;;;;;;4909874;28;20481;-76
2023/12/26 12:07:53;;;;;;;15.60;3.40;;;8.90;99.90;;;;;;4961578;28;20437;-76
2023/12/26 12:10:56;;;;;;;17.88;3.63;;;8.90;99.90;;;;;;4991678;28;20108;-77
2023/12/26 12:13:34;;;;;;;16.50;3.67;;;8.90;99.90;;;;;;4976085;28;20042;-76
2023/12/26 12:16:06;;;;;;;13.68;3.47;;;8.90;99.90;;;;;;4982081;28;20050;-76
2023/12/26 12:18:39;;;;;;;16.85;3.80;;;8.90;99.90;;;;;;4976939;28;20046;-76
2023/12/26 12:21:36;;;;;;;14.93;3.70;;;8.90;99.90;;;;;;4963123;28;20050;-76
2023/12/26 12:24:17;;;;;;;16.33;3.60;;;8.90;99.90;;;;;;4966135;28;20034;-77
2023/12/26 12:27:20;;;;;;;16.08;3.47;;;8.90;99.90;;;;;;4987840;28;20080;-77
2023/12/26 12:30:05;;;;;;;14.98;3.45;;;8.90;99.90;;;;;;4981179;28;20050;-76
2023/12/26 12:32:40;;;;;;;16.77;3.60;;;8.90;99.90;;;;;;4969890;28;20125;-77
2023/12/26 12:35:19;;;;;;;13.73;3.40;;;9.00;99.90;;;;;;4964751;28;20057;-76
2023/12/26 12:37:53;;;;;;;16.38;3.65;;;9.00;99.90;;;;;;4973911;28;20433;-77
2023/12/26 12:40:21;;;;;;;16.45;3.75;;;9.00;99.90;;;;;;4982506;28;20038;-77
2023/12/26 12:42:47;;;;;;;14.10;4.18;;;9.00;99.90;;;;;;4976945;28;20052;-76
2023/12/26 12:45:16;;;;;;;15.57;3.50;;;8.90;99.90;;;;;;4981128;28;20511;-76
2023/12/26 12:47:42;;;;;;;17.17;4.07;;;9.00;99.90;;;;;;4978745;28;20042;-76
2023/12/26 12:50:08;;;;;;;15.95;3.95;;;8.90;99.90;;;;;;4974971;28;20060;-76
2023/12/26 12:52:34;;;;;;;18.30;3.83;;;9.00;99.90;;;;;;4980416;28;20058;-76
2023/12/26 12:55:05;;;;;;;14.35;3.35;;;9.00;99.90;;;;;;4975741;28;20407;-76
2023/12/26 12:57:33;;;;;;;13.25;3.60;;;8.90;99.90;;;;;;4973929;28;20129;-76